createdAt,value
2023-01-06T00:00:43.652Z,21.81
2023-01-06T00:03:13.918Z,21.80
2023-01-06T00:05:44.673Z,21.79
2023-01-06T00:08:17.007Z,21.77
2023-01-06T00:10:47.390Z,21.75
2023-01-06T00:13:17.656Z,21.74
2023-01-06T00:15:48.175Z,21.72
2023-01-06T00:18:18.253Z,21.70
2023-01-06T00:20:48.722Z,21.69
2023-01-06T00:23:20.625Z,21.70
2023-01-06T00:25:54.194Z,21.71
2023-01-06T00:28:24.362Z,21.70
2023-01-06T00:30:54.371Z,21.73
2023-01-06T00:33:25.735Z,21.74
2023-01-06T00:36:01.291Z,21.76
2023-01-06T00:38:33.714Z,21.78
2023-01-06T00:41:27.715Z,21.80
2023-01-06T00:43:58.660Z,21.82
2023-01-06T00:46:29.911Z,21.83
2023-01-06T00:49:05.814Z,21.83
2023-01-06T00:51:37.858Z,21.83
2023-01-06T00:54:11.515Z,21.84
2023-01-06T00:56:43.104Z,21.85
2023-01-06T00:59:15.607Z,21.87
2023-01-06T01:01:47.845Z,21.89
2023-01-06T01:04:18.674Z,21.90
2023-01-06T01:06:51.141Z,21.90
2023-01-06T01:09:26.851Z,21.90
2023-01-06T01:12:12.800Z,21.89
2023-01-06T01:14:47.682Z,21.88
2023-01-06T01:17:21.037Z,21.87
2023-01-06T01:19:54.845Z,21.87
2023-01-06T01:22:26.458Z,21.89
2023-01-06T01:24:58.796Z,21.89
2023-01-06T01:27:28.856Z,21.89
2023-01-06T01:29:59.183Z,21.89
2023-01-06T01:32:29.629Z,21.89
2023-01-06T01:34:59.917Z,21.89
2023-01-06T01:37:31.436Z,21.88
2023-01-06T01:40:04.250Z,21.88
2023-01-06T01:42:33.991Z,21.88
2023-01-06T01:45:08.643Z,21.88
2023-01-06T01:47:49.239Z,21.88
2023-01-06T01:50:34.106Z,21.89
2023-01-06T01:53:12.215Z,21.89
2023-01-06T01:55:45.181Z,21.88
2023-01-06T01:58:20.689Z,21.88
2023-01-06T02:00:50.822Z,21.88
2023-01-06T02:03:23.889Z,21.88
2023-01-06T02:05:58.109Z,21.87
2023-01-06T02:08:37.903Z,21.89
2023-01-06T02:11:11.236Z,21.91
2023-01-06T02:13:47.861Z,21.92
2023-01-06T02:16:28.005Z,21.93
2023-01-06T02:19:10.082Z,21.94
2023-01-06T02:22:12.164Z,21.94
2023-01-06T02:25:35.489Z,21.93
2023-01-06T02:28:53.087Z,21.91
2023-01-06T02:32:01.254Z,21.90
2023-01-06T02:34:45.524Z,21.88
2023-01-06T02:37:37.745Z,21.90
2023-01-06T02:40:31.090Z,21.89
2023-01-06T02:43:16.331Z,21.89
2023-01-06T02:46:04.062Z,21.89
2023-01-06T02:48:46.977Z,21.89
2023-01-06T02:51:24.672Z,21.90
2023-01-06T02:54:10.406Z,21.89
2023-01-06T02:56:48.464Z,21.88
2023-01-06T02:59:28.264Z,21.89
2023-01-06T03:02:01.923Z,21.90
2023-01-06T03:04:41.596Z,21.91
2023-01-06T03:07:16.587Z,21.92
2023-01-06T03:09:48.357Z,21.92
2023-01-06T03:12:29.382Z,21.93
2023-01-06T03:14:59.544Z,21.93
2023-01-06T03:17:30.547Z,21.94
2023-01-06T03:20:07.013Z,21.94
2023-01-06T03:22:41.465Z,21.92
2023-01-06T03:25:12.902Z,21.91
2023-01-06T03:27:43.194Z,21.90
2023-01-06T03:30:15.373Z,21.91
2023-01-06T03:33:01.868Z,21.92
2023-01-06T03:35:58.452Z,21.90
2023-01-06T03:38:44.458Z,21.89
2023-01-06T03:41:50.013Z,21.88
2023-01-06T03:44:33.996Z,21.88
2023-01-06T03:47:14.977Z,21.88
2023-01-06T03:49:58.846Z,21.91
2023-01-06T03:52:37.564Z,21.92
2023-01-06T03:55:16.506Z,21.93
2023-01-06T03:57:53.624Z,21.92
2023-01-06T04:00:29.392Z,21.91
2023-01-06T04:02:59.973Z,21.89
2023-01-06T04:05:32.177Z,21.87
2023-01-06T04:08:05.092Z,21.86
2023-01-06T04:10:35.034Z,21.84
2023-01-06T04:13:03.728Z,21.85
2023-01-06T04:15:34.191Z,21.83
2023-01-06T04:18:05.115Z,21.84
2023-01-06T04:20:35.684Z,21.83
2023-01-06T04:23:08.160Z,21.82
2023-01-06T04:25:38.948Z,21.82
2023-01-06T04:28:09.455Z,21.79
2023-01-06T04:30:39.827Z,21.78
2023-01-06T04:33:10.255Z,21.77
2023-01-06T04:35:40.366Z,21.78
2023-01-06T04:38:12.861Z,21.78
2023-01-06T04:40:44.844Z,21.76
2023-01-06T04:43:16.749Z,21.74
2023-01-06T04:45:47.610Z,21.73
2023-01-06T04:48:18.065Z,21.73
2023-01-06T04:50:48.461Z,21.71
2023-01-06T04:53:19.846Z,21.68
2023-01-06T04:55:50.782Z,21.64
2023-01-06T04:58:21.076Z,21.63
2023-01-06T05:00:51.481Z,21.60
2023-01-06T05:03:21.427Z,21.59
2023-01-06T05:05:51.755Z,21.58
2023-01-06T05:08:26.582Z,21.57
2023-01-06T05:11:04.011Z,21.55
2023-01-06T05:13:35.666Z,21.54
2023-01-06T05:16:10.319Z,21.54
2023-01-06T05:18:40.776Z,21.55
2023-01-06T05:21:10.784Z,21.54
2023-01-06T05:23:43.441Z,21.53
2023-01-06T05:26:21.816Z,21.52
2023-01-06T05:28:52.587Z,21.49
2023-01-06T05:31:23.395Z,21.47
2023-01-06T05:33:53.945Z,21.45
2023-01-06T05:36:24.573Z,21.43
2023-01-06T05:38:57.949Z,21.42
2023-01-06T05:41:28.970Z,21.41
2023-01-06T05:44:00.615Z,21.41
2023-01-06T05:46:30.797Z,21.40
2023-01-06T05:49:03.801Z,21.40
2023-01-06T05:51:34.444Z,21.39
2023-01-06T05:54:11.461Z,21.36
2023-01-06T05:56:41.056Z,21.35
2023-01-06T05:59:11.779Z,21.35
2023-01-06T06:01:42.081Z,21.36
2023-01-06T06:04:14.446Z,21.38
2023-01-06T06:06:44.752Z,21.39
2023-01-06T06:09:17.717Z,21.43
2023-01-06T06:11:47.600Z,21.47
2023-01-06T06:14:18.070Z,21.49
2023-01-06T06:16:48.718Z,21.49
2023-01-06T06:19:19.309Z,21.49
2023-01-06T06:21:49.789Z,21.50
2023-01-06T06:24:22.031Z,21.52
2023-01-06T06:26:51.783Z,21.52
2023-01-06T06:29:22.219Z,21.53
2023-01-06T06:31:52.690Z,21.54
2023-01-06T06:34:27.403Z,21.57
2023-01-06T06:36:57.836Z,21.58
2023-01-06T06:39:30.130Z,21.59
2023-01-06T06:42:00.620Z,21.60
2023-01-06T06:44:30.611Z,21.61
2023-01-06T06:47:01.817Z,21.62
2023-01-06T06:49:32.272Z,21.64
2023-01-06T06:52:02.688Z,21.65
2023-01-06T06:54:41.826Z,21.70
2023-01-06T06:57:12.458Z,21.71
2023-01-06T06:59:42.554Z,21.75
2023-01-06T07:02:13.354Z,21.87
2023-01-06T07:04:43.753Z,22.07
2023-01-06T07:07:14.254Z,22.32
2023-01-06T07:09:46.737Z,22.56
2023-01-06T07:12:17.534Z,22.81
2023-01-06T07:14:47.551Z,23.08
2023-01-06T07:17:17.823Z,23.38
2023-01-06T07:19:48.437Z,23.67
2023-01-06T07:22:18.849Z,23.97
2023-01-06T07:24:51.017Z,24.27
2023-01-06T07:27:21.177Z,24.56
2023-01-06T07:29:51.078Z,24.88
2023-01-06T07:32:21.125Z,25.15
2023-01-06T07:34:51.809Z,25.43
2023-01-06T07:37:22.801Z,25.67
2023-01-06T07:39:55.152Z,25.92
2023-01-06T07:42:25.559Z,26.12
2023-01-06T07:44:55.481Z,26.31
2023-01-06T07:47:25.407Z,26.51
2023-01-06T07:49:55.581Z,26.68
2023-01-06T07:52:25.310Z,26.84
2023-01-06T07:54:59.957Z,27.05
2023-01-06T07:57:32.022Z,27.27
2023-01-06T08:00:02.615Z,27.50
2023-01-06T08:02:33.087Z,27.71
2023-01-06T08:05:03.805Z,27.93
2023-01-06T08:07:34.428Z,28.15
2023-01-06T08:10:06.572Z,28.38
2023-01-06T08:12:37.606Z,28.61
2023-01-06T08:15:09.047Z,28.84
2023-01-06T08:17:40.076Z,29.07
2023-01-06T08:20:11.546Z,29.31
2023-01-06T08:22:42.130Z,29.52
2023-01-06T08:25:15.235Z,29.70
2023-01-06T08:27:45.289Z,29.83
2023-01-06T08:30:20.459Z,29.90
2023-01-06T08:32:50.890Z,29.86
2023-01-06T08:35:20.943Z,29.74
2023-01-06T08:37:51.493Z,29.57
2023-01-06T08:40:23.497Z,29.38
2023-01-06T08:42:54.005Z,29.18
2023-01-06T08:45:24.438Z,28.97
2023-01-06T08:47:54.499Z,28.79
2023-01-06T08:50:26.572Z,28.60
2023-01-06T08:52:57.801Z,28.42
2023-01-06T08:55:29.882Z,28.23
2023-01-06T08:58:00.030Z,28.05
2023-01-06T09:00:30.449Z,27.86
2023-01-06T09:03:01.167Z,27.67
2023-01-06T09:05:31.944Z,27.49
2023-01-06T09:08:02.459Z,27.31
2023-01-06T09:10:34.596Z,27.16
2023-01-06T09:13:05.081Z,27.00
2023-01-06T09:15:35.606Z,26.87
2023-01-06T09:18:05.567Z,26.73
2023-01-06T09:20:35.457Z,26.57
2023-01-06T09:23:05.904Z,26.42
2023-01-06T09:25:38.444Z,26.28
2023-01-06T09:28:10.896Z,26.15
2023-01-06T09:30:41.351Z,26.03
2023-01-06T09:33:11.787Z,25.93
2023-01-06T09:35:42.437Z,25.80
2023-01-06T09:38:12.831Z,25.71
2023-01-06T09:41:09.333Z,25.60
2023-01-06T09:43:53.740Z,25.47
2023-01-06T09:46:30.495Z,25.37
2023-01-06T09:49:08.979Z,25.28
2023-01-06T09:51:41.018Z,25.18
2023-01-06T09:54:20.476Z,25.12
2023-01-06T09:57:02.618Z,25.05
2023-01-06T09:59:40.852Z,24.98
2023-01-06T10:02:21.701Z,24.92
2023-01-06T10:04:53.351Z,24.88
2023-01-06T10:07:36.745Z,24.84
2023-01-06T10:10:25.002Z,24.80
2023-01-06T10:13:14.457Z,24.75
2023-01-06T10:15:58.419Z,24.71
2023-01-06T10:18:51.992Z,24.66
2023-01-06T10:21:33.060Z,24.62
2023-01-06T10:24:33.791Z,24.58
2023-01-06T10:27:27.387Z,24.57
2023-01-06T10:30:03.185Z,24.57
2023-01-06T10:32:39.584Z,24.57
2023-01-06T10:35:17.961Z,24.59
2023-01-06T10:37:51.676Z,24.58
2023-01-06T10:40:25.971Z,24.57
2023-01-06T10:43:04.439Z,24.57
2023-01-06T10:45:42.358Z,24.53
2023-01-06T10:48:17.845Z,24.52
2023-01-06T10:50:48.263Z,24.48
2023-01-06T10:53:19.963Z,24.44
2023-01-06T10:55:55.136Z,24.42
2023-01-06T10:58:36.796Z,24.39
2023-01-06T11:01:16.146Z,24.35
2023-01-06T11:03:47.661Z,24.32
2023-01-06T11:06:27.319Z,24.28
2023-01-06T11:08:58.134Z,24.24
2023-01-06T11:11:29.507Z,24.23
2023-01-06T11:14:05.977Z,24.24
2023-01-06T11:16:39.887Z,24.21
2023-01-06T11:19:25.807Z,24.21
2023-01-06T11:21:57.678Z,24.18
2023-01-06T11:24:29.869Z,24.17
2023-01-06T11:27:02.751Z,24.15
2023-01-06T11:29:36.800Z,24.13
2023-01-06T11:32:19.364Z,24.12
2023-01-06T11:34:58.637Z,24.11
2023-01-06T11:37:38.333Z,24.09
2023-01-06T11:40:27.244Z,24.09
2023-01-06T11:43:03.375Z,24.04
2023-01-06T11:45:38.676Z,24.03
2023-01-06T11:48:19.765Z,24.04
2023-01-06T11:51:00.527Z,24.03
2023-01-06T11:53:33.901Z,24.04
2023-01-06T11:56:06.834Z,24.02
2023-01-06T11:58:55.514Z,24.02
2023-01-06T12:01:35.182Z,24.02
2023-01-06T12:04:22.146Z,24.01
2023-01-06T12:06:58.338Z,23.98
2023-01-06T12:09:36.895Z,23.97
2023-01-06T12:12:10.643Z,23.94
2023-01-06T12:14:42.661Z,23.91
2023-01-06T12:17:22.128Z,23.90
2023-01-06T12:20:04.096Z,23.87
2023-01-06T12:22:44.379Z,23.85
2023-01-06T12:25:22.075Z,23.83
2023-01-06T12:27:58.332Z,23.82
2023-01-06T12:30:37.396Z,23.80
2023-01-06T12:33:20.081Z,23.79
2023-01-06T12:35:56.654Z,23.80
2023-01-06T12:38:50.168Z,23.77
2023-01-06T12:41:31.137Z,23.77
2023-01-06T12:44:14.286Z,23.73
2023-01-06T12:46:57.728Z,23.73
2023-01-06T12:49:41.076Z,23.74
2023-01-06T12:52:21.048Z,23.74
2023-01-06T12:54:59.893Z,23.74
2023-01-06T12:57:56.318Z,23.76
2023-01-06T13:00:48.358Z,23.74
2023-01-06T13:03:54.484Z,23.74
2023-01-06T13:06:41.270Z,23.71
2023-01-06T13:09:37.749Z,23.68
2023-01-06T13:12:45.059Z,23.65
2023-01-06T13:15:23.564Z,23.63
2023-01-06T13:18:08.924Z,23.61
2023-01-06T13:20:47.014Z,23.58
2023-01-06T13:23:40.657Z,23.55
2023-01-06T13:27:01.939Z,23.52
2023-01-06T13:29:54.200Z,23.48
2023-01-06T13:32:50.061Z,23.46
2023-01-06T13:35:53.833Z,23.42
2023-01-06T13:38:55.384Z,23.39
2023-01-06T13:41:37.832Z,23.38
2023-01-06T13:44:18.433Z,23.37
2023-01-06T13:46:50.928Z,23.36
2023-01-06T13:49:21.949Z,23.35
2023-01-06T13:51:56.129Z,23.33
2023-01-06T13:55:07.912Z,23.31
2023-01-06T13:57:42.321Z,23.27
2023-01-06T14:00:31.539Z,23.24
2023-01-06T14:03:26.890Z,23.22
2023-01-06T14:06:01.200Z,23.21
2023-01-06T14:08:37.024Z,23.18
2023-01-06T14:11:29.901Z,23.14
2023-01-06T14:14:04.901Z,23.11
2023-01-06T14:16:47.906Z,23.10
2023-01-06T14:19:25.131Z,23.07
2023-01-06T14:21:58.115Z,23.07
2023-01-06T14:24:36.024Z,23.07
2023-01-06T14:27:08.828Z,23.06
2023-01-06T14:30:08.443Z,23.05
2023-01-06T14:33:26.269Z,23.03
2023-01-06T14:36:09.295Z,23.02
2023-01-06T14:38:49.136Z,23.01
2023-01-06T14:41:33.120Z,23.01
2023-01-06T14:44:13.615Z,23.00
2023-01-06T14:46:53.413Z,23.00
2023-01-06T14:49:29.983Z,22.99
2023-01-06T14:52:08.832Z,23.00
2023-01-06T14:54:45.327Z,23.01
2023-01-06T14:57:29.333Z,23.00
2023-01-06T15:00:16.025Z,23.01
2023-01-06T15:02:55.921Z,23.00
2023-01-06T15:05:30.782Z,22.99
2023-01-06T15:08:04.664Z,22.98
2023-01-06T15:10:38.828Z,22.98
2023-01-06T15:13:23.852Z,22.98
2023-01-06T15:16:02.176Z,22.96
2023-01-06T15:18:36.316Z,22.95
2023-01-06T15:21:08.221Z,22.93
2023-01-06T15:23:45.272Z,22.92
2023-01-06T15:26:20.840Z,22.91
2023-01-06T15:29:03.577Z,22.91
2023-01-06T15:31:39.820Z,22.89
2023-01-06T15:34:18.804Z,22.90
2023-01-06T15:36:53.144Z,22.88
2023-01-06T15:39:29.901Z,22.87
2023-01-06T15:42:02.400Z,22.85
2023-01-06T15:44:35.442Z,22.83
2023-01-06T15:47:25.919Z,22.82
2023-01-06T15:50:02.947Z,22.82
2023-01-06T15:52:39.176Z,22.81
2023-01-06T15:55:23.774Z,22.80
2023-01-06T15:58:01.398Z,22.77
2023-01-06T16:00:38.174Z,22.76
2023-01-06T16:03:09.933Z,22.74
2023-01-06T16:05:51.015Z,22.72
2023-01-06T16:08:28.386Z,22.70
2023-01-06T16:11:46.296Z,22.67
2023-01-06T16:14:32.795Z,22.63
2023-01-06T16:17:13.821Z,22.63
2023-01-06T16:20:00.414Z,22.62
2023-01-06T16:22:38.810Z,22.62
2023-01-06T16:25:26.334Z,22.63
2023-01-06T16:28:00.288Z,22.64
2023-01-06T16:30:32.065Z,22.64
2023-01-06T16:33:03.154Z,22.65
2023-01-06T16:35:37.623Z,22.66
2023-01-06T16:38:09.751Z,22.66
2023-01-06T16:40:42.628Z,22.66
2023-01-06T16:43:12.277Z,22.61
2023-01-06T16:45:49.159Z,22.57
2023-01-06T16:48:20.393Z,22.50
2023-01-06T16:50:55.018Z,22.44
2023-01-06T16:53:28.175Z,22.37
2023-01-06T16:56:00.152Z,22.35
2023-01-06T16:58:34.165Z,22.33
2023-01-06T17:01:15.832Z,22.34
2023-01-06T17:03:47.378Z,22.34
2023-01-06T17:06:22.270Z,22.33
2023-01-06T17:08:59.367Z,22.32
2023-01-06T17:11:38.827Z,22.34
2023-01-06T17:14:18.481Z,22.32
2023-01-06T17:16:49.683Z,22.30
2023-01-06T17:19:26.980Z,22.28
2023-01-06T17:22:07.165Z,22.29
2023-01-06T17:24:39.243Z,22.29
2023-01-06T17:27:23.901Z,22.32
2023-01-06T17:29:55.293Z,22.35
2023-01-06T17:32:36.508Z,22.36
2023-01-06T17:35:29.398Z,22.40
2023-01-06T17:38:05.539Z,22.42
2023-01-06T17:40:38.937Z,22.44
2023-01-06T17:43:25.162Z,22.50
2023-01-06T17:45:55.958Z,22.52
2023-01-06T17:48:27.012Z,22.54
2023-01-06T17:50:59.525Z,22.57
2023-01-06T17:53:51.591Z,22.57
2023-01-06T17:56:26.400Z,22.58
2023-01-06T17:58:56.408Z,22.57
2023-01-06T18:01:30.275Z,22.58
2023-01-06T18:04:01.474Z,22.59
2023-01-06T18:06:38.321Z,22.61
2023-01-06T18:09:18.131Z,22.64
2023-01-06T18:11:53.123Z,22.65
2023-01-06T18:14:30.419Z,22.66
2023-01-06T18:17:20.257Z,22.66
2023-01-06T18:19:51.526Z,22.65
2023-01-06T18:22:25.264Z,22.67
2023-01-06T18:25:00.424Z,22.66
2023-01-06T18:27:35.164Z,22.68
2023-01-06T18:30:22.353Z,22.68
2023-01-06T18:32:54.505Z,22.69
2023-01-06T18:35:29.314Z,22.71
2023-01-06T18:38:06.302Z,22.71
2023-01-06T18:40:39.670Z,22.72
2023-01-06T18:43:30.149Z,22.71
2023-01-06T18:46:03.983Z,22.69
2023-01-06T18:48:38.461Z,22.68
2023-01-06T18:51:20.975Z,22.68
2023-01-06T18:53:55.110Z,22.66
2023-01-06T18:56:27.353Z,22.66
2023-01-06T18:59:01.504Z,22.63
2023-01-06T19:01:40.380Z,22.63
2023-01-06T19:04:22.600Z,22.62
2023-01-06T19:06:59.078Z,22.59
2023-01-06T19:09:36.279Z,22.58
2023-01-06T19:12:32.631Z,22.58
2023-01-06T19:15:24.848Z,22.58
2023-01-06T19:17:55.989Z,22.57
2023-01-06T19:20:36.289Z,22.58
2023-01-06T19:23:20.828Z,22.57
2023-01-06T19:26:02.319Z,22.56
2023-01-06T19:28:37.784Z,22.56
2023-01-06T19:31:22.817Z,22.57
2023-01-06T19:34:00.138Z,22.57
2023-01-06T19:36:53.387Z,22.56
2023-01-06T19:39:33.130Z,22.54
2023-01-06T19:42:19.808Z,22.52
2023-01-06T19:44:55.141Z,22.49
2023-01-06T19:47:30.450Z,22.49
2023-01-06T19:50:14.940Z,22.48
2023-01-06T19:52:44.701Z,22.48
2023-01-06T19:55:25.035Z,22.48
2023-01-06T19:57:59.247Z,22.48
2023-01-06T20:00:51.007Z,22.47
2023-01-06T20:03:31.904Z,22.47
2023-01-06T20:06:03.115Z,22.47
2023-01-06T20:08:33.711Z,22.48
2023-01-06T20:11:04.328Z,22.48
2023-01-06T20:13:34.768Z,22.49
2023-01-06T20:16:04.989Z,22.50
2023-01-06T20:18:37.740Z,22.49
2023-01-06T20:21:11.089Z,22.48
2023-01-06T20:23:40.961Z,22.47
2023-01-06T20:26:10.972Z,22.48
2023-01-06T20:28:41.468Z,22.48
2023-01-06T20:31:11.868Z,22.50
2023-01-06T20:33:43.642Z,22.50
2023-01-06T20:36:17.434Z,22.50
2023-01-06T20:38:47.544Z,22.50
2023-01-06T20:41:18.060Z,22.49
2023-01-06T20:43:48.439Z,22.51
2023-01-06T20:46:19.064Z,22.51
2023-01-06T20:48:51.792Z,22.51
2023-01-06T20:51:22.480Z,22.51
2023-01-06T20:53:52.771Z,22.50
2023-01-06T20:56:22.536Z,22.51
2023-01-06T20:58:53.079Z,22.50
2023-01-06T21:01:23.080Z,22.50
2023-01-06T21:03:55.029Z,22.49
2023-01-06T21:06:25.000Z,22.48
2023-01-06T21:08:54.676Z,22.49
2023-01-06T21:11:25.557Z,22.50
2023-01-06T21:13:55.990Z,22.51
2023-01-06T21:16:27.315Z,22.53
2023-01-06T21:18:59.780Z,22.54
2023-01-06T21:21:30.178Z,22.53
2023-01-06T21:24:00.840Z,22.55
2023-01-06T21:26:31.339Z,22.55
2023-01-06T21:29:01.664Z,22.56
2023-01-06T21:31:32.033Z,22.55
2023-01-06T21:34:04.781Z,22.53
2023-01-06T21:36:36.238Z,22.50
2023-01-06T21:39:08.087Z,22.49
2023-01-06T21:41:55.275Z,22.46
2023-01-06T21:44:25.796Z,22.44
2023-01-06T21:46:55.822Z,22.44
2023-01-06T21:49:28.137Z,22.45
2023-01-06T21:51:59.861Z,22.45
2023-01-06T21:54:30.407Z,22.45
2023-01-06T21:57:01.032Z,22.45
2023-01-06T21:59:31.704Z,22.43
2023-01-06T22:02:02.280Z,22.42
2023-01-06T22:04:34.402Z,22.41
2023-01-06T22:07:09.622Z,22.39
2023-01-06T22:09:43.419Z,22.36
2023-01-06T22:12:17.014Z,22.33
2023-01-06T22:14:48.376Z,22.29
2023-01-06T22:17:19.167Z,22.28
2023-01-06T22:19:54.917Z,22.27
2023-01-06T22:22:27.076Z,22.25
2023-01-06T22:24:59.128Z,22.22
2023-01-06T22:27:29.599Z,22.20
2023-01-06T22:29:59.555Z,22.19
2023-01-06T22:32:30.132Z,22.19
2023-01-06T22:35:03.048Z,22.20
2023-01-06T22:37:33.492Z,22.19
2023-01-06T22:40:03.899Z,22.19
2023-01-06T22:42:34.441Z,22.21
2023-01-06T22:45:05.048Z,22.21
2023-01-06T22:47:35.626Z,22.20
2023-01-06T22:50:09.253Z,22.18
2023-01-06T22:52:39.864Z,22.16
2023-01-06T22:55:12.405Z,22.15
2023-01-06T22:57:42.907Z,22.11
2023-01-06T23:00:19.518Z,22.09
2023-01-06T23:02:49.716Z,22.05
2023-01-06T23:05:22.126Z,22.02
2023-01-06T23:07:51.996Z,22.00
2023-01-06T23:10:22.889Z,21.97
2023-01-06T23:12:53.964Z,21.93
2023-01-06T23:15:24.450Z,21.93
2023-01-06T23:17:54.901Z,21.90
2023-01-06T23:20:27.138Z,21.89
2023-01-06T23:22:57.751Z,21.88
2023-01-06T23:25:27.892Z,21.86
2023-01-06T23:27:58.228Z,21.86
2023-01-06T23:30:28.867Z,21.86
2023-01-06T23:32:59.329Z,21.85
2023-01-06T23:35:34.143Z,21.85
2023-01-06T23:38:04.570Z,21.85
2023-01-06T23:40:35.032Z,21.84
2023-01-06T23:43:05.393Z,21.83
2023-01-06T23:45:35.595Z,21.83
2023-01-06T23:48:06.355Z,21.83
2023-01-06T23:50:38.607Z,21.82
2023-01-06T23:53:08.784Z,21.81
2023-01-06T23:55:38.738Z,21.81
2023-01-06T23:58:08.816Z,21.80
